Turah, Montana
Current Conditions -  °F | °C
As of 9:53 PM on Friday 28 Nov 2014 (Local Time) from KMSO Reporting Station
Scattered Clouds Scattered Clouds  
Wind Chill: 43°   Ceiling: Unl
Heat Index: 43°   Visibility: 10mi
Dew Point: 35°   Wind: 3mph
Humidity: 74%   Direction: 20°NNE
Pressure: 29.37"   Gusts: NA
Location:  46.774°N, 113.676°W
Report Text: KMSO 290453Z AUTO 02003KT 10SM SCT030 SCT080 06/02 A2937 RMK AO2 RAB27E40 SLP952 P0000 T00610017
Loading
Personal Weather Stations






























Interactive Weather Map New forecast layout! Learn more

10-Day Weather Forecast

Advertisements
Track Severe Weather on mobile